sensor_id;sensor_type;location;lat;lon;timestamp;temperature;humidity
20722;DHT22;10522;52.198;9.890;2023-06-04T00:00:31;9.00;99.90
20722;DHT22;10522;52.198;9.890;2023-06-04T00:02:56;9.10;99.90
20722;DHT22;10522;52.198;9.890;2023-06-04T00:05:22;9.10;99.90
20722;DHT22;10522;52.198;9.890;2023-06-04T00:07:53;9.10;99.90
20722;DHT22;10522;52.198;9.890;2023-06-04T00:10:18;9.20;99.90
20722;DHT22;10522;52.198;9.890;2023-06-04T00:12:44;9.20;99.90
20722;DHT22;10522;52.198;9.890;2023-06-04T00:15:10;9.20;99.90
20722;DHT22;10522;52.198;9.890;2023-06-04T00:17:36;9.10;99.90
20722;DHT22;10522;52.198;9.890;2023-06-04T00:20:02;9.20;99.90
20722;DHT22;10522;52.198;9.890;2023-06-04T00:22:27;9.20;99.90
20722;DHT22;10522;52.198;9.890;2023-06-04T00:24:53;9.30;99.90
20722;DHT22;10522;52.198;9.890;2023-06-04T00:27:19;9.30;99.90
20722;DHT22;10522;52.198;9.890;2023-06-04T00:29:44;9.30;99.90
20722;DHT22;10522;52.198;9.890;2023-06-04T00:32:10;9.30;99.90
20722;DHT22;10522;52.198;9.890;2023-06-04T00:34:36;9.30;99.90
20722;DHT22;10522;52.198;9.890;2023-06-04T00:37:01;9.30;99.90
20722;DHT22;10522;52.198;9.890;2023-06-04T00:39:27;9.20;99.90
20722;DHT22;10522;52.198;9.890;2023-06-04T00:41:53;9.20;99.90
20722;DHT22;10522;52.198;9.890;2023-06-04T00:44:19;9.20;99.90
20722;DHT22;10522;52.198;9.890;2023-06-04T00:46:47;9.00;99.90
20722;DHT22;10522;52.198;9.890;2023-06-04T00:49:13;9.00;99.90
20722;DHT22;10522;52.198;9.890;2023-06-04T00:51:39;9.00;99.90
20722;DHT22;10522;52.198;9.890;2023-06-04T00:54:06;8.90;99.90
20722;DHT22;10522;52.198;9.890;2023-06-04T00:56:37;8.90;99.90
20722;DHT22;10522;52.198;9.890;2023-06-04T00:59:08;8.90;99.90
20722;DHT22;10522;52.198;9.890;2023-06-04T01:04:30;8.80;99.90
20722;DHT22;10522;52.198;9.890;2023-06-04T01:07:02;8.70;99.90
20722;DHT22;10522;52.198;9.890;2023-06-04T01:09:29;8.70;99.90
20722;DHT22;10522;52.198;9.890;2023-06-04T01:11:54;8.60;99.90
20722;DHT22;10522;52.198;9.890;2023-06-04T01:14:23;8.60;99.90
20722;DHT22;10522;52.198;9.890;2023-06-04T01:22:37;7.90;99.90
20722;DHT22;10522;52.198;9.890;2023-06-04T01:27:56;7.60;99.90
20722;DHT22;10522;52.198;9.890;2023-06-04T01:30:25;7.70;99.90
20722;DHT22;10522;52.198;9.890;2023-06-04T01:32:53;7.70;99.90
20722;DHT22;10522;52.198;9.890;2023-06-04T01:35:19;7.70;99.90
20722;DHT22;10522;52.198;9.890;2023-06-04T01:37:44;7.80;99.90
20722;DHT22;10522;52.198;9.890;2023-06-04T01:40:10;7.90;99.90
20722;DHT22;10522;52.198;9.890;2023-06-04T01:42:36;7.90;99.90
20722;DHT22;10522;52.198;9.890;2023-06-04T01:45:02;7.90;99.90
20722;DHT22;10522;52.198;9.890;2023-06-04T01:47:27;7.90;99.90
20722;DHT22;10522;52.198;9.890;2023-06-04T01:49:53;8.00;99.90
20722;DHT22;10522;52.198;9.890;2023-06-04T01:52:19;8.00;99.90
20722;DHT22;10522;52.198;9.890;2023-06-04T01:54:46;8.00;99.90
20722;DHT22;10522;52.198;9.890;2023-06-04T01:57:14;8.00;99.90
20722;DHT22;10522;52.198;9.890;2023-06-04T01:59:39;8.00;99.90
20722;DHT22;10522;52.198;9.890;2023-06-04T02:02:07;8.00;99.90
20722;DHT22;10522;52.198;9.890;2023-06-04T02:04:32;8.00;99.90
20722;DHT22;10522;52.198;9.890;2023-06-04T02:07:02;7.90;99.90
20722;DHT22;10522;52.198;9.890;2023-06-04T02:09:27;7.80;99.90
20722;DHT22;10522;52.198;9.890;2023-06-04T02:11:53;7.70;99.90
20722;DHT22;10522;52.198;9.890;2023-06-04T02:14:19;7.60;99.90
20722;DHT22;10522;52.198;9.890;2023-06-04T02:16:45;7.50;99.90
20722;DHT22;10522;52.198;9.890;2023-06-04T02:19:15;7.40;99.90
20722;DHT22;10522;52.198;9.890;2023-06-04T02:21:40;7.30;99.90
20722;DHT22;10522;52.198;9.890;2023-06-04T02:24:06;7.00;99.90
20722;DHT22;10522;52.198;9.890;2023-06-04T02:26:31;7.00;99.90
20722;DHT22;10522;52.198;9.890;2023-06-04T02:28:57;7.00;99.90
20722;DHT22;10522;52.198;9.890;2023-06-04T02:31:23;6.90;99.90
20722;DHT22;10522;52.198;9.890;2023-06-04T02:33:48;6.80;99.90
20722;DHT22;10522;52.198;9.890;2023-06-04T02:36:14;6.70;99.90
20722;DHT22;10522;52.198;9.890;2023-06-04T02:38:42;6.70;99.90
20722;DHT22;10522;52.198;9.890;2023-06-04T02:41:08;6.70;99.90
20722;DHT22;10522;52.198;9.890;2023-06-04T02:43:33;6.70;99.90
20722;DHT22;10522;52.198;9.890;2023-06-04T02:45:59;6.80;99.90
20722;DHT22;10522;52.198;9.890;2023-06-04T02:48:25;6.80;99.90
20722;DHT22;10522;52.198;9.890;2023-06-04T02:50:50;6.70;99.90
20722;DHT22;10522;52.198;9.890;2023-06-04T02:53:16;6.60;99.90
20722;DHT22;10522;52.198;9.890;2023-06-04T02:55:41;6.80;99.90
20722;DHT22;10522;52.198;9.890;2023-06-04T02:58:07;6.90;99.90
20722;DHT22;10522;52.198;9.890;2023-06-04T03:00:34;6.80;99.90
20722;DHT22;10522;52.198;9.890;2023-06-04T03:03:00;6.80;99.90
20722;DHT22;10522;52.198;9.890;2023-06-04T03:05:28;6.90;99.90
20722;DHT22;10522;52.198;9.890;2023-06-04T03:07:57;6.90;99.90
20722;DHT22;10522;52.198;9.890;2023-06-04T03:10:24;6.90;99.90
20722;DHT22;10522;52.198;9.890;2023-06-04T03:12:49;7.00;99.90
20722;DHT22;10522;52.198;9.890;2023-06-04T03:15:15;7.10;99.90
20722;DHT22;10522;52.198;9.890;2023-06-04T03:17:41;7.10;99.90
20722;DHT22;10522;52.198;9.890;2023-06-04T03:20:07;7.10;99.90
20722;DHT22;10522;52.198;9.890;2023-06-04T03:22:34;7.10;99.90
20722;DHT22;10522;52.198;9.890;2023-06-04T03:25:01;7.20;99.90
20722;DHT22;10522;52.198;9.890;2023-06-04T03:27:26;7.30;99.90
20722;DHT22;10522;52.198;9.890;2023-06-04T03:29:52;7.30;99.90
20722;DHT22;10522;52.198;9.890;2023-06-04T03:32:18;7.30;99.90
20722;DHT22;10522;52.198;9.890;2023-06-04T03:34:43;7.20;99.90
20722;DHT22;10522;52.198;9.890;2023-06-04T03:37:09;7.20;99.90
20722;DHT22;10522;52.198;9.890;2023-06-04T03:39:35;7.20;99.90
20722;DHT22;10522;52.198;9.890;2023-06-04T03:42:01;7.20;99.90
20722;DHT22;10522;52.198;9.890;2023-06-04T03:44:26;7.30;99.90
20722;DHT22;10522;52.198;9.890;2023-06-04T03:46:52;7.40;99.90
20722;DHT22;10522;52.198;9.890;2023-06-04T03:49:18;7.40;99.90
20722;DHT22;10522;52.198;9.890;2023-06-04T03:51:44;7.40;99.90
20722;DHT22;10522;52.198;9.890;2023-06-04T03:54:10;7.30;99.90
20722;DHT22;10522;52.198;9.890;2023-06-04T03:56:37;7.40;99.90
20722;DHT22;10522;52.198;9.890;2023-06-04T03:59:02;7.50;99.90
20722;DHT22;10522;52.198;9.890;2023-06-04T04:01:28;7.50;99.90
20722;DHT22;10522;52.198;9.890;2023-06-04T04:03:53;7.60;99.90
20722;DHT22;10522;52.198;9.890;2023-06-04T04:06:20;7.70;99.90
20722;DHT22;10522;52.198;9.890;2023-06-04T04:08:46;7.60;99.90
20722;DHT22;10522;52.198;9.890;2023-06-04T04:11:15;7.70;99.90
20722;DHT22;10522;52.198;9.890;2023-06-04T04:13:41;7.80;99.90
20722;DHT22;10522;52.198;9.890;2023-06-04T04:16:06;7.80;99.90
20722;DHT22;10522;52.198;9.890;2023-06-04T04:18:33;7.80;99.90
20722;DHT22;10522;52.198;9.890;2023-06-04T04:21:00;7.90;99.90
20722;DHT22;10522;52.198;9.890;2023-06-04T04:23:26;8.00;99.90
20722;DHT22;10522;52.198;9.890;2023-06-04T04:25:52;8.00;99.90
20722;DHT22;10522;52.198;9.890;2023-06-04T04:28:19;8.10;99.90
20722;DHT22;10522;52.198;9.890;2023-06-04T04:30:45;8.10;99.90
20722;DHT22;10522;52.198;9.890;2023-06-04T04:33:12;8.20;99.90
20722;DHT22;10522;52.198;9.890;2023-06-04T04:35:41;8.30;99.90
20722;DHT22;10522;52.198;9.890;2023-06-04T04:38:07;8.40;99.90
20722;DHT22;10522;52.198;9.890;2023-06-04T04:40:33;8.40;99.90
20722;DHT22;10522;52.198;9.890;2023-06-04T04:42:59;8.40;99.90
20722;DHT22;10522;52.198;9.890;2023-06-04T04:45:25;8.50;99.90
20722;DHT22;10522;52.198;9.890;2023-06-04T04:47:50;8.60;99.90
20722;DHT22;10522;52.198;9.890;2023-06-04T04:50:16;8.60;99.90
20722;DHT22;10522;52.198;9.890;2023-06-04T04:52:42;8.80;99.90
20722;DHT22;10522;52.198;9.890;2023-06-04T04:55:08;8.70;99.90
20722;DHT22;10522;52.198;9.890;2023-06-04T04:57:34;8.80;99.90
20722;DHT22;10522;52.198;9.890;2023-06-04T05:00:00;8.90;99.90
20722;DHT22;10522;52.198;9.890;2023-06-04T05:02:26;9.00;99.90
20722;DHT22;10522;52.198;9.890;2023-06-04T05:04:51;8.90;99.90
20722;DHT22;10522;52.198;9.890;2023-06-04T05:07:17;9.00;99.90
20722;DHT22;10522;52.198;9.890;2023-06-04T05:09:45;9.00;99.90
20722;DHT22;10522;52.198;9.890;2023-06-04T05:12:11;9.10;99.90
20722;DHT22;10522;52.198;9.890;2023-06-04T05:14:36;9.20;99.90
20722;DHT22;10522;52.198;9.890;2023-06-04T05:17:02;9.30;99.90
20722;DHT22;10522;52.198;9.890;2023-06-04T05:19:31;9.40;99.90
20722;DHT22;10522;52.198;9.890;2023-06-04T05:21:58;9.40;99.90
20722;DHT22;10522;52.198;9.890;2023-06-04T05:24:25;9.50;99.90
20722;DHT22;10522;52.198;9.890;2023-06-04T05:26:51;9.60;99.90
20722;DHT22;10522;52.198;9.890;2023-06-04T05:29:17;9.70;99.90
20722;DHT22;10522;52.198;9.890;2023-06-04T05:31:42;9.80;99.90
20722;DHT22;10522;52.198;9.890;2023-06-04T05:34:08;9.90;99.90
20722;DHT22;10522;52.198;9.890;2023-06-04T05:36:33;10.10;99.90
20722;DHT22;10522;52.198;9.890;2023-06-04T05:38:59;10.40;99.90
20722;DHT22;10522;52.198;9.890;2023-06-04T05:41:26;10.70;99.90
20722;DHT22;10522;52.198;9.890;2023-06-04T05:43:51;10.70;99.90
20722;DHT22;10522;52.198;9.890;2023-06-04T05:46:17;10.90;99.90
20722;DHT22;10522;52.198;9.890;2023-06-04T05:48:43;11.00;99.90
20722;DHT22;10522;52.198;9.890;2023-06-04T05:51:08;11.20;99.90
20722;DHT22;10522;52.198;9.890;2023-06-04T05:53:34;11.40;99.90
20722;DHT22;10522;52.198;9.890;2023-06-04T05:56:00;11.70;99.90
20722;DHT22;10522;52.198;9.890;2023-06-04T05:58:25;11.60;99.90
20722;DHT22;10522;52.198;9.890;2023-06-04T06:00:51;11.80;99.90
20722;DHT22;10522;52.198;9.890;2023-06-04T06:03:17;12.00;99.90
20722;DHT22;10522;52.198;9.890;2023-06-04T06:05:43;12.20;99.90
20722;DHT22;10522;52.198;9.890;2023-06-04T06:08:10;12.40;99.90
20722;DHT22;10522;52.198;9.890;2023-06-04T06:10:36;12.50;99.90
20722;DHT22;10522;52.198;9.890;2023-06-04T06:13:02;12.80;99.90
20722;DHT22;10522;52.198;9.890;2023-06-04T06:15:27;13.00;99.90
20722;DHT22;10522;52.198;9.890;2023-06-04T06:17:54;13.20;99.90
20722;DHT22;10522;52.198;9.890;2023-06-04T06:20:20;13.30;99.90
20722;DHT22;10522;52.198;9.890;2023-06-04T06:22:46;13.60;99.90
20722;DHT22;10522;52.198;9.890;2023-06-04T06:25:11;13.90;99.90
20722;DHT22;10522;52.198;9.890;2023-06-04T06:27:41;14.20;99.90
20722;DHT22;10522;52.198;9.890;2023-06-04T06:30:07;14.20;99.90
20722;DHT22;10522;52.198;9.890;2023-06-04T06:32:34;14.50;99.90
20722;DHT22;10522;52.198;9.890;2023-06-04T06:35:00;14.70;99.90
20722;DHT22;10522;52.198;9.890;2023-06-04T06:37:26;15.00;99.90
20722;DHT22;10522;52.198;9.890;2023-06-04T06:39:51;15.30;99.90
20722;DHT22;10522;52.198;9.890;2023-06-04T06:42:17;15.40;99.90
20722;DHT22;10522;52.198;9.890;2023-06-04T06:44:46;15.60;99.90
20722;DHT22;10522;52.198;9.890;2023-06-04T06:47:12;15.80;99.90
20722;DHT22;10522;52.198;9.890;2023-06-04T06:49:42;15.90;99.90
20722;DHT22;10522;52.198;9.890;2023-06-04T06:52:08;16.40;99.90
20722;DHT22;10522;52.198;9.890;2023-06-04T06:54:33;16.50;99.90
20722;DHT22;10522;52.198;9.890;2023-06-04T06:56:59;16.60;99.90
20722;DHT22;10522;52.198;9.890;2023-06-04T06:59:25;16.80;99.90
20722;DHT22;10522;52.198;9.890;2023-06-04T07:01:51;16.60;99.90
20722;DHT22;10522;52.198;9.890;2023-06-04T07:04:16;16.90;99.90
20722;DHT22;10522;52.198;9.890;2023-06-04T07:06:42;17.10;99.90
20722;DHT22;10522;52.198;9.890;2023-06-04T07:09:08;17.10;99.90
20722;DHT22;10522;52.198;9.890;2023-06-04T07:11:34;17.40;99.90
20722;DHT22;10522;52.198;9.890;2023-06-04T07:14:00;17.60;99.90
20722;DHT22;10522;52.198;9.890;2023-06-04T07:16:29;17.70;99.90
20722;DHT22;10522;52.198;9.890;2023-06-04T07:18:55;17.80;99.90
20722;DHT22;10522;52.198;9.890;2023-06-04T07:21:20;18.00;99.90
20722;DHT22;10522;52.198;9.890;2023-06-04T07:23:49;18.10;99.90
20722;DHT22;10522;52.198;9.890;2023-06-04T07:26:16;18.30;99.90
20722;DHT22;10522;52.198;9.890;2023-06-04T07:28:43;18.60;99.90
20722;DHT22;10522;52.198;9.890;2023-06-04T07:31:08;18.40;99.90
20722;DHT22;10522;52.198;9.890;2023-06-04T07:33:34;18.10;99.90
20722;DHT22;10522;52.198;9.890;2023-06-04T07:36:00;18.50;99.90
20722;DHT22;10522;52.198;9.890;2023-06-04T07:38:27;18.10;99.90
20722;DHT22;10522;52.198;9.890;2023-06-04T07:40:52;18.20;99.90
20722;DHT22;10522;52.198;9.890;2023-06-04T07:43:18;18.20;99.90
20722;DHT22;10522;52.198;9.890;2023-06-04T07:45:43;18.70;99.90
20722;DHT22;10522;52.198;9.890;2023-06-04T07:48:09;19.00;99.90
20722;DHT22;10522;52.198;9.890;2023-06-04T07:50:38;19.30;99.90
20722;DHT22;10522;52.198;9.890;2023-06-04T07:53:05;18.90;99.90
20722;DHT22;10522;52.198;9.890;2023-06-04T07:55:31;19.50;99.90
20722;DHT22;10522;52.198;9.890;2023-06-04T07:57:58;19.20;99.90
20722;DHT22;10522;52.198;9.890;2023-06-04T08:00:24;19.40;99.90
20722;DHT22;10522;52.198;9.890;2023-06-04T08:02:49;19.70;99.90
20722;DHT22;10522;52.198;9.890;2023-06-04T08:05:16;19.60;99.90
20722;DHT22;10522;52.198;9.890;2023-06-04T08:07:42;19.40;99.90
20722;DHT22;10522;52.198;9.890;2023-06-04T08:10:07;19.70;99.90
20722;DHT22;10522;52.198;9.890;2023-06-04T08:12:33;19.50;99.90
20722;DHT22;10522;52.198;9.890;2023-06-04T08:14:59;19.60;99.90
20722;DHT22;10522;52.198;9.890;2023-06-04T08:17:24;20.00;99.90
20722;DHT22;10522;52.198;9.890;2023-06-04T08:19:50;20.00;99.90
20722;DHT22;10522;52.198;9.890;2023-06-04T08:22:16;20.30;99.90
20722;DHT22;10522;52.198;9.890;2023-06-04T08:24:41;20.00;99.90
20722;DHT22;10522;52.198;9.890;2023-06-04T08:27:07;20.30;99.90
20722;DHT22;10522;52.198;9.890;2023-06-04T08:29:34;20.50;99.90
20722;DHT22;10522;52.198;9.890;2023-06-04T08:32:01;20.40;99.90
20722;DHT22;10522;52.198;9.890;2023-06-04T08:34:26;20.30;99.90
20722;DHT22;10522;52.198;9.890;2023-06-04T08:36:52;20.00;99.90
20722;DHT22;10522;52.198;9.890;2023-06-04T08:39:17;20.10;99.90
20722;DHT22;10522;52.198;9.890;2023-06-04T08:42:00;20.20;99.90
20722;DHT22;10522;52.198;9.890;2023-06-04T08:44:27;20.60;99.90
20722;DHT22;10522;52.198;9.890;2023-06-04T08:46:57;21.10;99.90
20722;DHT22;10522;52.198;9.890;2023-06-04T08:49:27;20.90;99.90
20722;DHT22;10522;52.198;9.890;2023-06-04T08:51:54;21.30;99.90
20722;DHT22;10522;52.198;9.890;2023-06-04T08:54:21;21.40;99.90
20722;DHT22;10522;52.198;9.890;2023-06-04T08:56:47;21.40;99.90
20722;DHT22;10522;52.198;9.890;2023-06-04T08:59:14;21.30;99.90
20722;DHT22;10522;52.198;9.890;2023-06-04T09:01:41;21.60;99.90
20722;DHT22;10522;52.198;9.890;2023-06-04T09:04:10;21.40;99.90
20722;DHT22;10522;52.198;9.890;2023-06-04T09:06:36;21.30;99.90
20722;DHT22;10522;52.198;9.890;2023-06-04T09:09:04;21.20;99.90
20722;DHT22;10522;52.198;9.890;2023-06-04T09:11:39;21.20;99.90
20722;DHT22;10522;52.198;9.890;2023-06-04T09:14:11;21.10;99.90
20722;DHT22;10522;52.198;9.890;2023-06-04T09:16:43;21.20;99.90
20722;DHT22;10522;52.198;9.890;2023-06-04T09:19:08;21.40;99.90
20722;DHT22;10522;52.198;9.890;2023-06-04T09:21:34;21.60;99.90
20722;DHT22;10522;52.198;9.890;2023-06-04T09:23:59;21.80;99.90
20722;DHT22;10522;52.198;9.890;2023-06-04T09:26:25;21.80;99.90
20722;DHT22;10522;52.198;9.890;2023-06-04T09:28:51;21.70;99.90
20722;DHT22;10522;52.198;9.890;2023-06-04T09:31:20;21.40;99.90
20722;DHT22;10522;52.198;9.890;2023-06-04T09:33:49;21.40;99.90
20722;DHT22;10522;52.198;9.890;2023-06-04T09:36:15;22.00;99.90
20722;DHT22;10522;52.198;9.890;2023-06-04T09:38:41;21.80;99.90
20722;DHT22;10522;52.198;9.890;2023-06-04T09:41:17;21.80;99.90
20722;DHT22;10522;52.198;9.890;2023-06-04T09:43:47;21.50;99.90
20722;DHT22;10522;52.198;9.890;2023-06-04T09:46:14;21.80;99.90
20722;DHT22;10522;52.198;9.890;2023-06-04T09:48:40;22.00;99.90
20722;DHT22;10522;52.198;9.890;2023-06-04T09:51:08;22.40;99.90
20722;DHT22;10522;52.198;9.890;2023-06-04T09:53:33;22.50;99.90
20722;DHT22;10522;52.198;9.890;2023-06-04T09:56:00;22.20;99.90
20722;DHT22;10522;52.198;9.890;2023-06-04T09:58:27;22.40;99.90
20722;DHT22;10522;52.198;9.890;2023-06-04T10:00:55;22.50;99.90
20722;DHT22;10522;52.198;9.890;2023-06-04T10:03:24;22.50;99.90
20722;DHT22;10522;52.198;9.890;2023-06-04T10:05:52;22.30;99.90
20722;DHT22;10522;52.198;9.890;2023-06-04T10:08:18;22.10;99.90
20722;DHT22;10522;52.198;9.890;2023-06-04T10:10:47;22.40;99.90
20722;DHT22;10522;52.198;9.890;2023-06-04T10:13:17;22.50;99.90
20722;DHT22;10522;52.198;9.890;2023-06-04T10:15:44;22.30;99.90
20722;DHT22;10522;52.198;9.890;2023-06-04T10:18:11;22.40;99.90
20722;DHT22;10522;52.198;9.890;2023-06-04T10:20:37;22.70;99.90
20722;DHT22;10522;52.198;9.890;2023-06-04T10:23:03;22.90;99.90
20722;DHT22;10522;52.198;9.890;2023-06-04T10:25:29;23.20;99.90
20722;DHT22;10522;52.198;9.890;2023-06-04T10:27:56;23.00;99.90
20722;DHT22;10522;52.198;9.890;2023-06-04T10:30:22;22.40;99.90
20722;DHT22;10522;52.198;9.890;2023-06-04T10:32:47;22.30;99.90
20722;DHT22;10522;52.198;9.890;2023-06-04T10:35:13;22.30;99.90
20722;DHT22;10522;52.198;9.890;2023-06-04T10:37:40;22.20;99.90
20722;DHT22;10522;52.198;9.890;2023-06-04T10:40:06;22.20;99.90
20722;DHT22;10522;52.198;9.890;2023-06-04T10:42:41;22.40;99.90
20722;DHT22;10522;52.198;9.890;2023-06-04T10:45:08;22.60;99.90
20722;DHT22;10522;52.198;9.890;2023-06-04T10:47:35;23.00;99.90
20722;DHT22;10522;52.198;9.890;2023-06-04T10:50:13;22.90;99.90
20722;DHT22;10522;52.198;9.890;2023-06-04T10:52:51;23.10;99.90
20722;DHT22;10522;52.198;9.890;2023-06-04T10:55:17;23.50;99.90
20722;DHT22;10522;52.198;9.890;2023-06-04T10:57:56;23.10;99.90
20722;DHT22;10522;52.198;9.890;2023-06-04T11:00:33;22.70;99.90
20722;DHT22;10522;52.198;9.890;2023-06-04T11:02:59;22.90;99.90
20722;DHT22;10522;52.198;9.890;2023-06-04T11:05:35;23.20;99.90
20722;DHT22;10522;52.198;9.890;2023-06-04T11:08:01;23.30;99.90
20722;DHT22;10522;52.198;9.890;2023-06-04T11:10:39;23.00;99.90
20722;DHT22;10522;52.198;9.890;2023-06-04T11:13:05;23.00;99.90
20722;DHT22;10522;52.198;9.890;2023-06-04T11:15:41;23.10;99.90
20722;DHT22;10522;52.198;9.890;2023-06-04T11:18:07;23.20;99.90
20722;DHT22;10522;52.198;9.890;2023-06-04T11:20:32;23.10;99.90
20722;DHT22;10522;52.198;9.890;2023-06-04T11:22:59;23.40;99.90
20722;DHT22;10522;52.198;9.890;2023-06-04T11:25:28;23.40;99.90
20722;DHT22;10522;52.198;9.890;2023-06-04T11:27:56;23.40;99.90
20722;DHT22;10522;52.198;9.890;2023-06-04T11:30:22;23.50;99.90
20722;DHT22;10522;52.198;9.890;2023-06-04T11:32:49;23.50;99.90
20722;DHT22;10522;52.198;9.890;2023-06-04T11:35:15;23.50;99.90
20722;DHT22;10522;52.198;9.890;2023-06-04T11:37:40;23.30;99.90
20722;DHT22;10522;52.198;9.890;2023-06-04T11:40:19;23.20;99.90
20722;DHT22;10522;52.198;9.890;2023-06-04T11:42:49;23.20;99.90
20722;DHT22;10522;52.198;9.890;2023-06-04T11:45:17;23.50;99.90
20722;DHT22;10522;52.198;9.890;2023-06-04T11:47:54;23.90;99.90
20722;DHT22;10522;52.198;9.890;2023-06-04T11:50:22;24.00;99.90
20722;DHT22;10522;52.198;9.890;2023-06-04T11:52:48;23.90;99.90
20722;DHT22;10522;52.198;9.890;2023-06-04T11:55:15;24.10;99.90
20722;DHT22;10522;52.198;9.890;2023-06-04T11:57:43;23.90;99.90
20722;DHT22;10522;52.198;9.890;2023-06-04T12:00:09;24.10;99.90
20722;DHT22;10522;52.198;9.890;2023-06-04T12:02:36;24.50;99.90
20722;DHT22;10522;52.198;9.890;2023-06-04T12:05:16;24.70;99.90
20722;DHT22;10522;52.198;9.890;2023-06-04T12:07:44;24.40;99.90
20722;DHT22;10522;52.198;9.890;2023-06-04T12:10:10;24.20;99.90
20722;DHT22;10522;52.198;9.890;2023-06-04T12:12:40;24.20;99.90
20722;DHT22;10522;52.198;9.890;2023-06-04T12:15:07;24.20;99.90
20722;DHT22;10522;52.198;9.890;2023-06-04T12:17:33;24.30;99.90
20722;DHT22;10522;52.198;9.890;2023-06-04T12:19:58;24.70;99.90
20722;DHT22;10522;52.198;9.890;2023-06-04T12:22:25;24.40;99.90
20722;DHT22;10522;52.198;9.890;2023-06-04T12:24:55;24.30;99.90
20722;DHT22;10522;52.198;9.890;2023-06-04T12:27:24;24.20;99.90
20722;DHT22;10522;52.198;9.890;2023-06-04T12:29:58;24.40;99.90
20722;DHT22;10522;52.198;9.890;2023-06-04T12:32:24;24.40;99.90
20722;DHT22;10522;52.198;9.890;2023-06-04T12:34:50;24.40;99.90
20722;DHT22;10522;52.198;9.890;2023-06-04T12:37:16;24.70;99.90
20722;DHT22;10522;52.198;9.890;2023-06-04T12:39:41;24.50;99.90
20722;DHT22;10522;52.198;9.890;2023-06-04T12:42:08;24.50;99.90
20722;DHT22;10522;52.198;9.890;2023-06-04T12:44:41;24.80;99.90
20722;DHT22;10522;52.198;9.890;2023-06-04T12:47:07;24.60;99.90
20722;DHT22;10522;52.198;9.890;2023-06-04T12:49:33;24.70;99.90
20722;DHT22;10522;52.198;9.890;2023-06-04T12:51:59;24.60;99.90
20722;DHT22;10522;52.198;9.890;2023-06-04T12:54:25;24.50;99.40
20722;DHT22;10522;52.198;9.890;2023-06-04T12:56:52;24.50;99.90
20722;DHT22;10522;52.198;9.890;2023-06-04T12:59:18;24.50;99.90
20722;DHT22;10522;52.198;9.890;2023-06-04T13:01:44;24.60;99.90
20722;DHT22;10522;52.198;9.890;2023-06-04T13:04:09;24.60;99.90
20722;DHT22;10522;52.198;9.890;2023-06-04T13:06:35;24.80;99.90
20722;DHT22;10522;52.198;9.890;2023-06-04T13:09:01;24.80;99.90
20722;DHT22;10522;52.198;9.890;2023-06-04T13:11:28;25.00;99.90
20722;DHT22;10522;52.198;9.890;2023-06-04T13:13:54;24.70;99.90
20722;DHT22;10522;52.198;9.890;2023-06-04T13:16:19;25.10;99.90
20722;DHT22;10522;52.198;9.890;2023-06-04T13:18:45;24.90;99.90
20722;DHT22;10522;52.198;9.890;2023-06-04T13:21:10;25.00;99.90
20722;DHT22;10522;52.198;9.890;2023-06-04T13:23:36;24.90;99.90
20722;DHT22;10522;52.198;9.890;2023-06-04T13:26:02;24.80;99.90
20722;DHT22;10522;52.198;9.890;2023-06-04T13:28:27;25.20;99.90
20722;DHT22;10522;52.198;9.890;2023-06-04T13:30:53;25.20;99.80
20722;DHT22;10522;52.198;9.890;2023-06-04T13:33:18;25.50;99.90
20722;DHT22;10522;52.198;9.890;2023-06-04T13:35:46;25.80;99.90
20722;DHT22;10522;52.198;9.890;2023-06-04T13:38:12;25.90;99.90
20722;DHT22;10522;52.198;9.890;2023-06-04T13:40:38;25.50;99.90
20722;DHT22;10522;52.198;9.890;2023-06-04T13:43:05;25.60;99.80
20722;DHT22;10522;52.198;9.890;2023-06-04T13:45:32;25.40;99.30
20722;DHT22;10522;52.198;9.890;2023-06-04T13:47:58;25.30;99.90
20722;DHT22;10522;52.198;9.890;2023-06-04T13:50:31;25.50;99.10
20722;DHT22;10522;52.198;9.890;2023-06-04T13:52:56;25.50;99.70
20722;DHT22;10522;52.198;9.890;2023-06-04T13:55:22;25.50;99.20
20722;DHT22;10522;52.198;9.890;2023-06-04T13:57:49;25.30;98.40
20722;DHT22;10522;52.198;9.890;2023-06-04T14:00:15;24.50;98.30
20722;DHT22;10522;52.198;9.890;2023-06-04T14:05:24;25.20;98.50
20722;DHT22;10522;52.198;9.890;2023-06-04T14:07:50;25.20;98.50
20722;DHT22;10522;52.198;9.890;2023-06-04T14:10:16;24.90;99.00
20722;DHT22;10522;52.198;9.890;2023-06-04T14:12:41;25.20;98.40
20722;DHT22;10522;52.198;9.890;2023-06-04T14:15:08;25.50;99.90
20722;DHT22;10522;52.198;9.890;2023-06-04T14:17:34;25.20;98.20
20722;DHT22;10522;52.198;9.890;2023-06-04T14:20:01;25.40;98.30
20722;DHT22;10522;52.198;9.890;2023-06-04T14:22:35;25.30;99.10
20722;DHT22;10522;52.198;9.890;2023-06-04T14:25:03;25.30;97.30
20722;DHT22;10522;52.198;9.890;2023-06-04T14:27:28;25.00;96.40
20722;DHT22;10522;52.198;9.890;2023-06-04T14:29:54;24.90;97.40
20722;DHT22;10522;52.198;9.890;2023-06-04T14:32:20;25.20;98.80
20722;DHT22;10522;52.198;9.890;2023-06-04T14:34:46;25.70;98.40
20722;DHT22;10522;52.198;9.890;2023-06-04T14:37:11;25.70;98.50
20722;DHT22;10522;52.198;9.890;2023-06-04T14:39:37;25.60;98.80
20722;DHT22;10522;52.198;9.890;2023-06-04T14:42:02;26.00;98.40
20722;DHT22;10522;52.198;9.890;2023-06-04T14:44:28;25.20;97.90
20722;DHT22;10522;52.198;9.890;2023-06-04T14:46:54;25.30;99.40
20722;DHT22;10522;52.198;9.890;2023-06-04T14:49:19;25.30;98.10
20722;DHT22;10522;52.198;9.890;2023-06-04T14:51:45;25.40;97.70
20722;DHT22;10522;52.198;9.890;2023-06-04T14:54:11;25.80;99.00
20722;DHT22;10522;52.198;9.890;2023-06-04T14:56:37;25.90;98.80
20722;DHT22;10522;52.198;9.890;2023-06-04T14:59:02;25.60;98.00
20722;DHT22;10522;52.198;9.890;2023-06-04T15:01:34;25.30;97.40
20722;DHT22;10522;52.198;9.890;2023-06-04T15:04:01;25.50;99.20
20722;DHT22;10522;52.198;9.890;2023-06-04T15:06:27;25.80;97.80
20722;DHT22;10522;52.198;9.890;2023-06-04T15:08:53;25.40;97.20
20722;DHT22;10522;52.198;9.890;2023-06-04T15:11:19;25.60;97.30
20722;DHT22;10522;52.198;9.890;2023-06-04T15:13:44;25.40;95.60
20722;DHT22;10522;52.198;9.890;2023-06-04T15:16:10;25.70;97.20
20722;DHT22;10522;52.198;9.890;2023-06-04T15:18:36;25.40;97.30
20722;DHT22;10522;52.198;9.890;2023-06-04T15:21:01;25.70;97.10
20722;DHT22;10522;52.198;9.890;2023-06-04T15:23:27;25.70;96.10
20722;DHT22;10522;52.198;9.890;2023-06-04T15:25:52;25.70;96.40
20722;DHT22;10522;52.198;9.890;2023-06-04T15:28:18;25.70;96.20
20722;DHT22;10522;52.198;9.890;2023-06-04T15:30:44;25.90;95.90
20722;DHT22;10522;52.198;9.890;2023-06-04T15:33:09;26.10;96.60
20722;DHT22;10522;52.198;9.890;2023-06-04T15:35:35;26.40;97.80
20722;DHT22;10522;52.198;9.890;2023-06-04T15:38:00;26.40;98.50
20722;DHT22;10522;52.198;9.890;2023-06-04T15:40:27;26.20;96.90
20722;DHT22;10522;52.198;9.890;2023-06-04T15:42:53;26.00;96.50
20722;DHT22;10522;52.198;9.890;2023-06-04T15:45:19;25.80;97.30